sensor_id;sensor_type;location;lat;lon;timestamp;pressure;altitude;pressure_sealevel;temperature;humidity
59063;BME280;44851;45.648;9.004;2023-03-24T00:00:08;99007.84;;;13.44;57.54
59063;BME280;44851;45.648;9.004;2023-03-24T00:02:38;99003.56;;;13.35;57.40
59063;BME280;44851;45.648;9.004;2023-03-24T00:05:08;99014.66;;;13.29;58.06
59063;BME280;44851;45.648;9.004;2023-03-24T00:07:34;99012.97;;;13.20;58.37
59063;BME280;44851;45.648;9.004;2023-03-24T00:10:07;99009.88;;;13.25;58.46
59063;BME280;44851;45.648;9.004;2023-03-24T00:12:37;99016.25;;;13.22;58.35
59063;BME280;44851;45.648;9.004;2023-03-24T00:15:06;99011.50;;;13.26;58.34
59063;BME280;44851;45.648;9.004;2023-03-24T00:17:32;99007.72;;;13.20;58.48
59063;BME280;44851;45.648;9.004;2023-03-24T00:20:11;99016.09;;;13.24;58.52
59063;BME280;44851;45.648;9.004;2023-03-24T00:22:44;99012.66;;;13.23;58.60
59063;BME280;44851;45.648;9.004;2023-03-24T00:25:18;99011.03;;;13.22;58.60
59063;BME280;44851;45.648;9.004;2023-03-24T00:27:45;99009.69;;;13.18;58.83
59063;BME280;44851;45.648;9.004;2023-03-24T00:30:14;99002.72;;;13.27;58.84
59063;BME280;44851;45.648;9.004;2023-03-24T00:32:40;98996.03;;;13.32;58.94
59063;BME280;44851;45.648;9.004;2023-03-24T00:35:07;98985.50;;;13.24;59.10
59063;BME280;44851;45.648;9.004;2023-03-24T00:37:36;98986.44;;;13.15;58.63
59063;BME280;44851;45.648;9.004;2023-03-24T00:40:06;98994.63;;;13.20;59.05
59063;BME280;44851;45.648;9.004;2023-03-24T00:42:34;98985.22;;;13.27;58.50
59063;BME280;44851;45.648;9.004;2023-03-24T00:45:00;98982.53;;;13.19;58.87
59063;BME280;44851;45.648;9.004;2023-03-24T00:47:25;98978.28;;;13.18;59.01
59063;BME280;44851;45.648;9.004;2023-03-24T00:49:51;98990.75;;;13.24;58.90
59063;BME280;44851;45.648;9.004;2023-03-24T00:52:20;98987.03;;;13.09;58.68
59063;BME280;44851;45.648;9.004;2023-03-24T00:54:48;98987.59;;;12.94;59.00
59063;BME280;44851;45.648;9.004;2023-03-24T00:57:15;98984.66;;;12.89;58.97
59063;BME280;44851;45.648;9.004;2023-03-24T00:59:49;98983.59;;;12.82;60.15
59063;BME280;44851;45.648;9.004;2023-03-24T01:02:19;98983.50;;;12.92;59.74
59063;BME280;44851;45.648;9.004;2023-03-24T01:04:57;98986.94;;;12.92;59.99
59063;BME280;44851;45.648;9.004;2023-03-24T01:07:24;98982.03;;;12.89;59.92
59063;BME280;44851;45.648;9.004;2023-03-24T01:09:50;98971.59;;;12.72;59.94
59063;BME280;44851;45.648;9.004;2023-03-24T01:12:27;98971.59;;;12.72;60.01
59063;BME280;44851;45.648;9.004;2023-03-24T01:14:53;98971.78;;;12.70;59.79
59063;BME280;44851;45.648;9.004;2023-03-24T01:17:20;98970.78;;;12.71;60.08
59063;BME280;44851;45.648;9.004;2023-03-24T01:19:52;98964.84;;;12.61;60.11
59063;BME280;44851;45.648;9.004;2023-03-24T01:22:18;98968.59;;;12.58;60.54
59063;BME280;44851;45.648;9.004;2023-03-24T01:24:45;98966.34;;;12.63;60.47
59063;BME280;44851;45.648;9.004;2023-03-24T01:27:10;98959.59;;;12.61;60.16
59063;BME280;44851;45.648;9.004;2023-03-24T01:29:36;98965.66;;;12.61;60.07
59063;BME280;44851;45.648;9.004;2023-03-24T01:32:01;98953.91;;;12.65;59.86
59063;BME280;44851;45.648;9.004;2023-03-24T01:34:27;98954.19;;;12.54;59.85
59063;BME280;44851;45.648;9.004;2023-03-24T01:36:52;98950.06;;;12.52;60.16
59063;BME280;44851;45.648;9.004;2023-03-24T01:39:18;98946.94;;;12.48;61.00
59063;BME280;44851;45.648;9.004;2023-03-24T01:41:43;98953.41;;;12.62;60.23
59063;BME280;44851;45.648;9.004;2023-03-24T01:44:34;98952.22;;;12.56;59.20
59063;BME280;44851;45.648;9.004;2023-03-24T01:47:02;98951.41;;;12.56;60.06
59063;BME280;44851;45.648;9.004;2023-03-24T01:49:37;98954.38;;;12.61;59.79
59063;BME280;44851;45.648;9.004;2023-03-24T01:52:12;98949.16;;;12.61;60.46
59063;BME280;44851;45.648;9.004;2023-03-24T01:54:46;98949.66;;;12.64;59.44
59063;BME280;44851;45.648;9.004;2023-03-24T01:57:19;98952.44;;;12.63;60.04
59063;BME280;44851;45.648;9.004;2023-03-24T01:59:48;98944.53;;;12.55;60.28
59063;BME280;44851;45.648;9.004;2023-03-24T02:02:16;98945.00;;;12.50;60.55
59063;BME280;44851;45.648;9.004;2023-03-24T02:04:46;98937.25;;;12.40;60.75
59063;BME280;44851;45.648;9.004;2023-03-24T02:07:48;98937.25;;;12.40;59.66
59063;BME280;44851;45.648;9.004;2023-03-24T02:10:20;98941.56;;;12.50;60.67
59063;BME280;44851;45.648;9.004;2023-03-24T02:12:46;98939.94;;;12.49;60.07
59063;BME280;44851;45.648;9.004;2023-03-24T02:15:13;98934.09;;;12.55;60.70
59063;BME280;44851;45.648;9.004;2023-03-24T02:23:20;98909.38;;;12.49;59.64
59063;BME280;44851;45.648;9.004;2023-03-24T02:42:41;98903.94;;;12.42;60.07
59063;BME280;44851;45.648;9.004;2023-03-24T02:58:55;98882.88;;;12.44;61.01
59063;BME280;44851;45.648;9.004;2023-03-24T03:01:29;98879.13;;;12.47;61.40
59063;BME280;44851;45.648;9.004;2023-03-24T03:04:05;98880.41;;;12.42;60.98
59063;BME280;44851;45.648;9.004;2023-03-24T03:06:35;98880.44;;;12.51;61.23
59063;BME280;44851;45.648;9.004;2023-03-24T03:09:08;98876.47;;;12.38;62.12
59063;BME280;44851;45.648;9.004;2023-03-24T03:11:36;98871.28;;;12.47;61.53
59063;BME280;44851;45.648;9.004;2023-03-24T03:14:06;98867.91;;;12.54;61.93
59063;BME280;44851;45.648;9.004;2023-03-24T03:16:45;98867.53;;;12.49;60.78
59063;BME280;44851;45.648;9.004;2023-03-24T03:19:24;98865.38;;;12.44;61.04
59063;BME280;44851;45.648;9.004;2023-03-24T03:21:52;98864.66;;;12.34;62.86
59063;BME280;44851;45.648;9.004;2023-03-24T03:24:28;98863.03;;;12.33;61.41
59063;BME280;44851;45.648;9.004;2023-03-24T03:26:59;98854.22;;;12.34;62.15
59063;BME280;44851;45.648;9.004;2023-03-24T03:29:28;98854.22;;;12.34;62.54
59063;BME280;44851;45.648;9.004;2023-03-24T03:32:01;98845.53;;;12.26;62.34
59063;BME280;44851;45.648;9.004;2023-03-24T03:37:12;98852.28;;;12.36;62.81
59063;BME280;44851;45.648;9.004;2023-03-24T03:39:46;98851.56;;;12.26;63.08
59063;BME280;44851;45.648;9.004;2023-03-24T03:42:13;98848.34;;;12.32;62.96
59063;BME280;44851;45.648;9.004;2023-03-24T03:44:39;98846.38;;;12.34;62.48
59063;BME280;44851;45.648;9.004;2023-03-24T03:47:05;98848.28;;;12.24;63.15
59063;BME280;44851;45.648;9.004;2023-03-24T03:49:30;98849.81;;;12.09;63.84
59063;BME280;44851;45.648;9.004;2023-03-24T03:51:56;98846.63;;;12.23;62.93
59063;BME280;44851;45.648;9.004;2023-03-24T03:54:24;98841.97;;;12.09;62.67
59063;BME280;44851;45.648;9.004;2023-03-24T03:56:51;98842.38;;;12.22;63.70
59063;BME280;44851;45.648;9.004;2023-03-24T03:59:32;98838.50;;;12.26;62.40
59063;BME280;44851;45.648;9.004;2023-03-24T04:15:49;98858.47;;;12.35;62.82
59063;BME280;44851;45.648;9.004;2023-03-24T04:18:31;98866.19;;;12.19;62.73
59063;BME280;44851;45.648;9.004;2023-03-24T04:21:12;98869.06;;;12.08;63.76
59063;BME280;44851;45.648;9.004;2023-03-24T04:26:55;98878.25;;;12.12;62.48
59063;BME280;44851;45.648;9.004;2023-03-24T04:35:20;98869.50;;;12.21;64.22
59063;BME280;44851;45.648;9.004;2023-03-24T04:37:57;98879.63;;;12.24;63.98
59063;BME280;44851;45.648;9.004;2023-03-24T04:40:27;98882.69;;;12.20;64.05
59063;BME280;44851;45.648;9.004;2023-03-24T04:42:59;98871.75;;;12.16;64.25
59063;BME280;44851;45.648;9.004;2023-03-24T04:45:26;98875.44;;;12.31;63.83
59063;BME280;44851;45.648;9.004;2023-03-24T04:47:54;98875.44;;;12.31;63.96
59063;BME280;44851;45.648;9.004;2023-03-24T04:50:37;98876.75;;;12.35;63.23
59063;BME280;44851;45.648;9.004;2023-03-24T04:53:04;98863.03;;;12.33;63.95
59063;BME280;44851;45.648;9.004;2023-03-24T04:55:50;98870.53;;;12.28;62.87
59063;BME280;44851;45.648;9.004;2023-03-24T04:58:19;98872.47;;;12.26;63.95
59063;BME280;44851;45.648;9.004;2023-03-24T05:00:45;98871.13;;;12.22;64.46
59063;BME280;44851;45.648;9.004;2023-03-24T05:03:12;98874.72;;;12.21;64.67
59063;BME280;44851;45.648;9.004;2023-03-24T05:05:48;98874.09;;;12.27;63.74
59063;BME280;44851;45.648;9.004;2023-03-24T05:08:15;98886.72;;;12.32;63.43
59063;BME280;44851;45.648;9.004;2023-03-24T05:10:41;98868.56;;;12.30;64.40
59063;BME280;44851;45.648;9.004;2023-03-24T05:13:08;98870.53;;;12.28;63.67
59063;BME280;44851;45.648;9.004;2023-03-24T05:15:34;98874.84;;;12.37;63.67
59063;BME280;44851;45.648;9.004;2023-03-24T05:18:00;98869.59;;;12.37;64.22
59063;BME280;44851;45.648;9.004;2023-03-24T05:20:26;98878.78;;;12.41;63.73
59063;BME280;44851;45.648;9.004;2023-03-24T05:22:52;98869.34;;;12.49;64.25
59063;BME280;44851;45.648;9.004;2023-03-24T05:25:19;98883.22;;;12.23;63.98
59063;BME280;44851;45.648;9.004;2023-03-24T05:27:45;98880.34;;;12.34;63.93
59063;BME280;44851;45.648;9.004;2023-03-24T05:30:11;98882.34;;;12.40;63.76
59063;BME280;44851;45.648;9.004;2023-03-24T05:32:37;98874.84;;;12.37;64.87
59063;BME280;44851;45.648;9.004;2023-03-24T05:35:03;98871.28;;;12.47;64.57
59063;BME280;44851;45.648;9.004;2023-03-24T05:37:29;98875.56;;;12.48;64.07
59063;BME280;44851;45.648;9.004;2023-03-24T05:39:54;98873.06;;;12.46;64.30
59063;BME280;44851;45.648;9.004;2023-03-24T05:42:19;98885.03;;;12.49;64.35
59063;BME280;44851;45.648;9.004;2023-03-24T05:44:45;98871.63;;;12.52;63.74
59063;BME280;44851;45.648;9.004;2023-03-24T05:47:12;98878.91;;;12.40;63.88
59063;BME280;44851;45.648;9.004;2023-03-24T05:49:43;98888.09;;;12.44;64.56
59063;BME280;44851;45.648;9.004;2023-03-24T05:52:09;98884.03;;;12.50;64.18
59063;BME280;44851;45.648;9.004;2023-03-24T05:54:35;98889.56;;;12.47;64.59
59063;BME280;44851;45.648;9.004;2023-03-24T05:57:06;98886.19;;;12.54;64.65
59063;BME280;44851;45.648;9.004;2023-03-24T05:59:35;98890.50;;;12.37;64.30
59063;BME280;44851;45.648;9.004;2023-03-24T06:02:02;98903.22;;;12.58;65.29
59063;BME280;44851;45.648;9.004;2023-03-24T06:04:27;98910.91;;;12.60;64.72
59063;BME280;44851;45.648;9.004;2023-03-24T06:06:55;98902.72;;;12.55;65.01
59063;BME280;44851;45.648;9.004;2023-03-24T06:09:26;98902.41;;;12.58;64.86
59063;BME280;44851;45.648;9.004;2023-03-24T06:11:53;98895.50;;;12.57;64.86
59063;BME280;44851;45.648;9.004;2023-03-24T06:14:18;98898.03;;;12.66;65.15
59063;BME280;44851;45.648;9.004;2023-03-24T06:16:44;98899.16;;;12.64;65.44
59063;BME280;44851;45.648;9.004;2023-03-24T06:19:09;98896.22;;;12.67;65.42
59063;BME280;44851;45.648;9.004;2023-03-24T06:21:34;98896.56;;;12.64;65.46
59063;BME280;44851;45.648;9.004;2023-03-24T06:24:00;98897.91;;;12.68;65.30
59063;BME280;44851;45.648;9.004;2023-03-24T06:26:25;98904.75;;;12.69;65.33
59063;BME280;44851;45.648;9.004;2023-03-24T06:28:55;98920.75;;;12.66;65.11
59063;BME280;44851;45.648;9.004;2023-03-24T06:31:20;98913.25;;;12.71;65.80
59063;BME280;44851;45.648;9.004;2023-03-24T06:33:50;98912.63;;;12.77;65.81
59063;BME280;44851;45.648;9.004;2023-03-24T06:36:16;98914.94;;;12.80;65.72
59063;BME280;44851;45.648;9.004;2023-03-24T06:38:42;98910.06;;;12.85;66.00
59063;BME280;44851;45.648;9.004;2023-03-24T06:41:09;98906.47;;;12.86;65.80
59063;BME280;44851;45.648;9.004;2023-03-24T06:43:34;98902.56;;;12.90;65.82
59063;BME280;44851;45.648;9.004;2023-03-24T06:45:59;98898.00;;;12.92;66.15
59063;BME280;44851;45.648;9.004;2023-03-24T06:48:25;98902.69;;;12.81;65.36
59063;BME280;44851;45.648;9.004;2023-03-24T06:50:52;98901.94;;;12.96;65.79
59063;BME280;44851;45.648;9.004;2023-03-24T06:53:18;98912.72;;;12.93;66.49
59063;BME280;44851;45.648;9.004;2023-03-24T06:55:47;98927.13;;;12.98;66.78
59063;BME280;44851;45.648;9.004;2023-03-24T06:58:12;98928.09;;;12.96;66.62
59063;BME280;44851;45.648;9.004;2023-03-24T07:00:39;98928.09;;;12.96;66.48
59063;BME280;44851;45.648;9.004;2023-03-24T07:03:05;98932.34;;;12.98;66.87
59063;BME280;44851;45.648;9.004;2023-03-24T07:05:32;98924.50;;;12.98;66.69
59063;BME280;44851;45.648;9.004;2023-03-24T07:07:57;98917.31;;;13.00;66.96
59063;BME280;44851;45.648;9.004;2023-03-24T07:10:23;98913.41;;;13.04;66.99
59063;BME280;44851;45.648;9.004;2023-03-24T07:12:49;98907.47;;;12.93;65.98
59063;BME280;44851;45.648;9.004;2023-03-24T07:15:14;98906.84;;;13.00;66.70
59063;BME280;44851;45.648;9.004;2023-03-24T07:17:41;98906.53;;;13.03;65.94
59063;BME280;44851;45.648;9.004;2023-03-24T07:20:07;98899.88;;;13.08;65.04
59063;BME280;44851;45.648;9.004;2023-03-24T07:22:34;98905.75;;;13.10;66.00
59063;BME280;44851;45.648;9.004;2023-03-24T07:25:01;98911.16;;;13.09;65.40
59063;BME280;44851;45.648;9.004;2023-03-24T07:27:29;98916.75;;;13.14;66.12
59063;BME280;44851;45.648;9.004;2023-03-24T07:29:57;98929.22;;;13.20;65.66
59063;BME280;44851;45.648;9.004;2023-03-24T07:32:22;98934.44;;;13.20;65.83
59063;BME280;44851;45.648;9.004;2023-03-24T07:34:48;98933.16;;;13.16;65.90
59063;BME280;44851;45.648;9.004;2023-03-24T07:37:14;98942.25;;;13.12;65.05
59063;BME280;44851;45.648;9.004;2023-03-24T07:39:39;98929.84;;;13.14;65.52
59063;BME280;44851;45.648;9.004;2023-03-24T07:42:05;98939.84;;;13.18;66.36
59063;BME280;44851;45.648;9.004;2023-03-24T07:44:30;98939.69;;;13.20;65.38
59063;BME280;44851;45.648;9.004;2023-03-24T07:46:56;98944.91;;;13.20;65.53
59063;BME280;44851;45.648;9.004;2023-03-24T07:49:22;98936.06;;;13.21;66.34
59063;BME280;44851;45.648;9.004;2023-03-24T07:51:48;98933.16;;;13.16;65.01
59063;BME280;44851;45.648;9.004;2023-03-24T07:54:13;98943.44;;;13.17;65.00
59063;BME280;44851;45.648;9.004;2023-03-24T07:56:38;98942.97;;;13.22;65.92
59063;BME280;44851;45.648;9.004;2023-03-24T07:59:04;98944.72;;;13.13;65.27
59063;BME280;44851;45.648;9.004;2023-03-24T08:01:29;98936.72;;;13.15;64.51
59063;BME280;44851;45.648;9.004;2023-03-24T08:03:55;98940.81;;;13.17;64.80
59063;BME280;44851;45.648;9.004;2023-03-24T08:06:20;98949.38;;;13.28;65.50
59063;BME280;44851;45.648;9.004;2023-03-24T08:08:46;98952.81;;;13.28;65.23
59063;BME280;44851;45.648;9.004;2023-03-24T08:11:11;98949.84;;;13.31;65.40
59063;BME280;44851;45.648;9.004;2023-03-24T08:13:36;98943.31;;;13.27;64.96
59063;BME280;44851;45.648;9.004;2023-03-24T08:16:02;98946.53;;;13.21;64.19
59063;BME280;44851;45.648;9.004;2023-03-24T08:18:28;98950.34;;;13.27;64.53
59063;BME280;44851;45.648;9.004;2023-03-24T08:20:57;98946.63;;;13.37;65.08
59063;BME280;44851;45.648;9.004;2023-03-24T08:23:23;98945.25;;;13.25;64.31
59063;BME280;44851;45.648;9.004;2023-03-24T08:25:48;98937.75;;;13.30;63.61
59063;BME280;44851;45.648;9.004;2023-03-24T08:28:14;98928.44;;;13.36;64.83
59063;BME280;44851;45.648;9.004;2023-03-24T08:30:41;98928.63;;;13.34;63.34
59063;BME280;44851;45.648;9.004;2023-03-24T08:33:10;98931.28;;;13.51;63.58
59063;BME280;44851;45.648;9.004;2023-03-24T08:35:36;98940.78;;;13.52;63.43
59063;BME280;44851;45.648;9.004;2023-03-24T08:38:03;98949.13;;;13.55;62.71
59063;BME280;44851;45.648;9.004;2023-03-24T08:40:29;98951.75;;;13.55;62.95
59063;BME280;44851;45.648;9.004;2023-03-24T08:42:58;98954.38;;;13.55;62.20
59063;BME280;44851;45.648;9.004;2023-03-24T08:45:26;98953.56;;;13.55;62.16
59063;BME280;44851;45.648;9.004;2023-03-24T08:47:53;98950.59;;;13.58;62.11
59063;BME280;44851;45.648;9.004;2023-03-24T08:50:21;98951.91;;;13.54;61.84
59063;BME280;44851;45.648;9.004;2023-03-24T08:52:48;98956.88;;;13.73;62.08
59063;BME280;44851;45.648;9.004;2023-03-24T08:55:15;98950.81;;;13.72;62.83
59063;BME280;44851;45.648;9.004;2023-03-24T08:57:42;98945.22;;;13.59;62.05
59063;BME280;44851;45.648;9.004;2023-03-24T09:00:08;98946.72;;;13.70;62.23
59063;BME280;44851;45.648;9.004;2023-03-24T09:02:37;98944.41;;;13.59;61.41
59063;BME280;44851;45.648;9.004;2023-03-24T09:05:03;98942.78;;;13.74;62.21
59063;BME280;44851;45.648;9.004;2023-03-24T09:07:29;98950.13;;;13.62;61.02
59063;BME280;44851;45.648;9.004;2023-03-24T09:09:54;98951.97;;;13.70;61.28
59063;BME280;44851;45.648;9.004;2023-03-24T09:12:20;98950.97;;;13.71;61.11
59063;BME280;44851;45.648;9.004;2023-03-24T09:14:49;98949.47;;;13.68;61.86
59063;BME280;44851;45.648;9.004;2023-03-24T09:17:15;98950.19;;;13.87;62.01
59063;BME280;44851;45.648;9.004;2023-03-24T09:19:41;98943.16;;;13.87;61.11
59063;BME280;44851;45.648;9.004;2023-03-24T09:22:06;98947.09;;;14.08;62.69
59063;BME280;44851;45.648;9.004;2023-03-24T09:24:32;98949.38;;;14.11;62.03
59063;BME280;44851;45.648;9.004;2023-03-24T09:26:57;98951.69;;;13.97;60.84
59063;BME280;44851;45.648;9.004;2023-03-24T09:29:24;98951.50;;;13.99;60.12
59063;BME280;44851;45.648;9.004;2023-03-24T09:31:50;98952.31;;;13.99;60.82
59063;BME280;44851;45.648;9.004;2023-03-24T09:34:17;98959.69;;;14.04;60.13
59063;BME280;44851;45.648;9.004;2023-03-24T09:36:43;98962.81;;;13.99;59.89
59063;BME280;44851;45.648;9.004;2023-03-24T09:39:08;98959.22;;;14.09;59.89
59063;BME280;44851;45.648;9.004;2023-03-24T09:41:33;98965.28;;;14.09;60.10
59063;BME280;44851;45.648;9.004;2023-03-24T09:44:20;98961.19;;;14.07;59.50
59063;BME280;44851;45.648;9.004;2023-03-24T09:46:55;98948.72;;;14.17;59.58
59063;BME280;44851;45.648;9.004;2023-03-24T09:49:26;98948.75;;;14.25;59.76
59063;BME280;44851;45.648;9.004;2023-03-24T09:52:01;98953.84;;;14.26;58.81
59063;BME280;44851;45.648;9.004;2023-03-24T09:54:43;98950.56;;;14.24;59.24
59063;BME280;44851;45.648;9.004;2023-03-24T09:59:45;98957.94;;;14.29;59.95
59063;BME280;44851;45.648;9.004;2023-03-24T10:02:15;98963.19;;;14.29;58.97
59063;BME280;44851;45.648;9.004;2023-03-24T10:04:42;98959.25;;;14.25;58.77
59063;BME280;44851;45.648;9.004;2023-03-24T10:09:58;98963.84;;;14.23;59.74
59063;BME280;44851;45.648;9.004;2023-03-24T10:20:51;98958.25;;;14.26;59.86
59063;BME280;44851;45.648;9.004;2023-03-24T10:23:28;98955.63;;;14.18;58.88
59063;BME280;44851;45.648;9.004;2023-03-24T10:26:28;98954.63;;;14.11;58.80
59063;BME280;44851;45.648;9.004;2023-03-24T10:31:36;98951.03;;;14.20;59.64
59063;BME280;44851;45.648;9.004;2023-03-24T10:34:03;98946.78;;;14.35;59.73
59063;BME280;44851;45.648;9.004;2023-03-24T10:36:29;98932.88;;;14.26;60.46
59063;BME280;44851;45.648;9.004;2023-03-24T10:38:55;98932.38;;;14.31;59.99
59063;BME280;44851;45.648;9.004;2023-03-24T10:41:23;98933.19;;;14.40;58.76
59063;BME280;44851;45.648;9.004;2023-03-24T10:43:51;98935.00;;;14.39;58.60
59063;BME280;44851;45.648;9.004;2023-03-24T10:46:20;98932.03;;;14.42;58.08
59063;BME280;44851;45.648;9.004;2023-03-24T10:48:49;98936.81;;;14.39;58.35
59063;BME280;44851;45.648;9.004;2023-03-24T10:51:25;98934.00;;;14.32;58.59
59063;BME280;44851;45.648;9.004;2023-03-24T10:54:15;98927.94;;;14.40;58.54
59063;BME280;44851;45.648;9.004;2023-03-24T11:01:46;98935.31;;;14.61;58.83
59063;BME280;44851;45.648;9.004;2023-03-24T11:04:14;98935.94;;;14.63;58.06
59063;BME280;44851;45.648;9.004;2023-03-24T11:06:59;98936.94;;;14.62;58.14
59063;BME280;44851;45.648;9.004;2023-03-24T11:09:26;98943.00;;;14.54;58.78
59063;BME280;44851;45.648;9.004;2023-03-24T11:11:52;98943.66;;;14.56;57.68
59063;BME280;44851;45.648;9.004;2023-03-24T11:14:25;98942.84;;;14.56;58.01
59063;BME280;44851;45.648;9.004;2023-03-24T11:16:53;98940.06;;;14.57;58.48
59063;BME280;44851;45.648;9.004;2023-03-24T11:19:25;98937.25;;;14.59;58.87
59063;BME280;44851;45.648;9.004;2023-03-24T11:21:56;98929.06;;;14.62;57.79
59063;BME280;44851;45.648;9.004;2023-03-24T11:24:25;98926.09;;;14.65;57.07
59063;BME280;44851;45.648;9.004;2023-03-24T11:27:00;98915.94;;;14.62;57.96
59063;BME280;44851;45.648;9.004;2023-03-24T11:29:28;98916.09;;;14.68;58.15
59063;BME280;44851;45.648;9.004;2023-03-24T11:31:59;98915.91;;;14.70;57.21
59063;BME280;44851;45.648;9.004;2023-03-24T11:34:32;98910.84;;;14.68;56.80
59063;BME280;44851;45.648;9.004;2023-03-24T11:37:14;98912.34;;;14.63;56.34
59063;BME280;44851;45.648;9.004;2023-03-24T11:39:42;98910.97;;;14.75;57.97
59063;BME280;44851;45.648;9.004;2023-03-24T11:47:11;98891.31;;;14.79;57.09
59063;BME280;44851;45.648;9.004;2023-03-24T11:49:42;98889.97;;;14.83;57.04
59063;BME280;44851;45.648;9.004;2023-03-24T11:52:23;98882.72;;;14.93;57.92
59063;BME280;44851;45.648;9.004;2023-03-24T11:54:49;98877.47;;;14.93;58.25
59063;BME280;44851;45.648;9.004;2023-03-24T11:57:25;98878.47;;;14.92;57.53
59063;BME280;44851;45.648;9.004;2023-03-24T12:00:11;98872.44;;;14.84;57.61
59063;BME280;44851;45.648;9.004;2023-03-24T12:02:47;98866.16;;;14.93;57.22
59063;BME280;44851;45.648;9.004;2023-03-24T12:08:21;98858.25;;;15.01;57.06
59063;BME280;44851;45.648;9.004;2023-03-24T12:11:09;98856.78;;;14.98;56.78
59063;BME280;44851;45.648;9.004;2023-03-24T12:13:45;98850.78;;;15.13;57.45
59063;BME280;44851;45.648;9.004;2023-03-24T12:27:04;98833.91;;;15.15;55.54
59063;BME280;44851;45.648;9.004;2023-03-24T12:30:28;98839.91;;;15.32;55.80
59063;BME280;44851;45.648;9.004;2023-03-24T12:32:39;98831.03;;;15.33;57.10
59063;BME280;44851;45.648;9.004;2023-03-24T12:35:15;98819.59;;;15.26;56.24
59063;BME280;44851;45.648;9.004;2023-03-24T12:48:49;98827.88;;;15.38;56.08
59063;BME280;44851;45.648;9.004;2023-03-24T12:51:50;98822.41;;;15.47;55.72
59063;BME280;44851;45.648;9.004;2023-03-24T12:54:31;98813.53;;;15.48;56.17
59063;BME280;44851;45.648;9.004;2023-03-24T12:57:08;98817.16;;;15.47;55.71
59063;BME280;44851;45.648;9.004;2023-03-24T12:59:50;98802.59;;;15.60;55.39
59063;BME280;44851;45.648;9.004;2023-03-24T13:02:35;98801.06;;;15.50;55.39
59063;BME280;44851;45.648;9.004;2023-03-24T13:05:13;98800.81;;;15.37;55.26
59063;BME280;44851;45.648;9.004;2023-03-24T13:07:41;98803.50;;;15.52;57.32
59063;BME280;44851;45.648;9.004;2023-03-24T13:10:18;98787.38;;;15.55;55.53
59063;BME280;44851;45.648;9.004;2023-03-24T13:15:42;98778.75;;;15.46;56.38
59063;BME280;44851;45.648;9.004;2023-03-24T13:20:50;98780.78;;;15.36;54.86
59063;BME280;44851;45.648;9.004;2023-03-24T13:26:13;98780.50;;;15.31;55.16
59063;BME280;44851;45.648;9.004;2023-03-24T13:28:43;98762.31;;;15.21;55.93
59063;BME280;44851;45.648;9.004;2023-03-24T13:31:11;98756.19;;;15.06;55.87
59063;BME280;44851;45.648;9.004;2023-03-24T13:33:39;98750.63;;;15.32;56.63
59063;BME280;44851;45.648;9.004;2023-03-24T13:36:33;98747.56;;;15.43;55.85
59063;BME280;44851;45.648;9.004;2023-03-24T13:39:11;98739.78;;;15.35;55.32
59063;BME280;44851;45.648;9.004;2023-03-24T13:41:38;98737.16;;;15.50;57.08
59063;BME280;44851;45.648;9.004;2023-03-24T13:44:16;98738.06;;;15.42;55.35
59063;BME280;44851;45.648;9.004;2023-03-24T13:46:43;98739.06;;;15.41;57.04
59063;BME280;44851;45.648;9.004;2023-03-24T13:49:23;98734.09;;;15.46;55.56
59063;BME280;44851;45.648;9.004;2023-03-24T13:51:49;98725.84;;;15.49;56.22
59063;BME280;44851;45.648;9.004;2023-03-24T13:54:21;98722.94;;;15.44;55.64
59063;BME280;44851;45.648;9.004;2023-03-24T13:57:05;98721.91;;;15.30;56.12
59063;BME280;44851;45.648;9.004;2023-03-24T14:00:03;98727.28;;;15.37;56.36
59063;BME280;44851;45.648;9.004;2023-03-24T14:05:09;98738.97;;;15.35;55.79
59063;BME280;44851;45.648;9.004;2023-03-24T14:15:34;98722.19;;;15.36;55.43
59063;BME280;44851;45.648;9.004;2023-03-24T14:25:54;98715.13;;;15.36;56.33
59063;BME280;44851;45.648;9.004;2023-03-24T14:28:25;98711.19;;;15.40;56.15
59063;BME280;44851;45.648;9.004;2023-03-24T14:30:59;98705.22;;;15.46;56.45
59063;BME280;44851;45.648;9.004;2023-03-24T14:33:27;98696.31;;;15.47;56.01
59063;BME280;44851;45.648;9.004;2023-03-24T14:36:00;98704.72;;;15.43;56.52
59063;BME280;44851;45.648;9.004;2023-03-24T14:38:34;98713.72;;;15.48;56.98
59063;BME280;44851;45.648;9.004;2023-03-24T14:41:05;98707.69;;;15.25;55.54
59063;BME280;44851;45.648;9.004;2023-03-24T14:46:30;98700.91;;;15.30;56.70
59063;BME280;44851;45.648;9.004;2023-03-24T14:49:25;98703.34;;;15.32;56.12
59063;BME280;44851;45.648;9.004;2023-03-24T14:55:01;98696.94;;;15.35;55.87
59063;BME280;44851;45.648;9.004;2023-03-24T14:57:31;98707.88;;;15.38;56.50
59063;BME280;44851;45.648;9.004;2023-03-24T15:00:21;98703.25;;;15.25;55.54
59063;BME280;44851;45.648;9.004;2023-03-24T15:05:42;98706.50;;;15.27;57.09
59063;BME280;44851;45.648;9.004;2023-03-24T15:08:20;98705.06;;;15.25;56.40
59063;BME280;44851;45.648;9.004;2023-03-24T15:11:01;98704.41;;;15.23;55.89
59063;BME280;44851;45.648;9.004;2023-03-24T15:13:33;98698.28;;;15.30;57.10
59063;BME280;44851;45.648;9.004;2023-03-24T15:16:03;98702.28;;;15.41;57.02
59063;BME280;44851;45.648;9.004;2023-03-24T15:18:31;98700.66;;;15.40;56.94
59063;BME280;44851;45.648;9.004;2023-03-24T15:20:57;98693.41;;;15.42;56.87
59063;BME280;44851;45.648;9.004;2023-03-24T15:23:24;98700.56;;;15.48;56.31
59063;BME280;44851;45.648;9.004;2023-03-24T15:25:51;98698.31;;;15.45;56.81
59063;BME280;44851;45.648;9.004;2023-03-24T15:28:26;98696.94;;;15.49;56.83
59063;BME280;44851;45.648;9.004;2023-03-24T15:30:52;98698.03;;;15.40;56.91
59063;BME280;44851;45.648;9.004;2023-03-24T15:33:18;98693.66;;;15.33;55.76
59063;BME280;44851;45.648;9.004;2023-03-24T15:35:44;98689.16;;;15.41;56.45
59063;BME280;44851;45.648;9.004;2023-03-24T15:38:18;98691.41;;;15.44;55.32
59063;BME280;44851;45.648;9.004;2023-03-24T15:41:01;98693.75;;;15.39;54.81
59063;BME280;44851;45.648;9.004;2023-03-24T15:43:28;98697.03;;;15.41;56.48